Time;durP1;ratioP1;P1;durP2;ratioP2;P2;SDS_P1;SDS_P2;PMS_P1;PMS_P2;Temp;Humidity;BMP_temperature;BMP_pressure;BME280_temperature;BME280_humidity;BME280_pressure;Samples;Min_cycle;Max_cycle;Signal;HPM_P1;HPM_P2
2021/11/22 00:01:06;;;;;;;;;;;7.90;93.90;;;;;;5029516;28;19921;-81
2021/11/22 00:03:34;;;;;;;;;;;7.90;93.80;;;;;;5030250;28;19921;-80
2021/11/22 00:06:01;;;;;;;;;;;7.90;93.80;;;;;;5035723;28;19943;-81
2021/11/22 00:08:27;;;;;;;;;;;7.90;93.70;;;;;;5034644;28;19979;-81
2021/11/22 00:10:54;;;;;;;;;;;7.90;93.70;;;;;;5037651;28;19929;-79
2021/11/22 00:13:21;;;;;;;;;;;7.90;93.70;;;;;;5033663;28;19921;-76
2021/11/22 00:15:48;;;;;;;;;;;7.90;93.70;;;;;;5036752;28;19921;-79
2021/11/22 00:18:15;;;;;;;;;;;7.90;93.70;;;;;;5034291;28;19971;-80
2021/11/22 00:20:41;;;;;;;;;;;7.90;93.80;;;;;;5018212;28;19922;-80
2021/11/22 00:23:08;;;;;;;;;;;7.90;93.80;;;;;;5026428;28;19944;-76
2021/11/22 00:25:35;;;;;;;;;;;7.90;93.80;;;;;;5031373;28;19921;-80
2021/11/22 00:28:02;;;;;;;;;;;7.90;93.80;;;;;;5035649;28;19975;-79
2021/11/22 00:30:30;;;;;;;;;;;7.90;93.80;;;;;;5028055;28;19921;-76
2021/11/22 00:32:59;;;;;;;;;;;7.90;93.70;;;;;;5025606;28;20289;-80
2021/11/22 00:35:32;;;;;;;;;;;7.90;93.60;;;;;;5031067;28;20332;-76
2021/11/22 00:38:08;;;;;;;;;;;7.90;93.70;;;;;;5036703;28;19921;-76
2021/11/22 00:40:36;;;;;;;;;;;7.90;93.80;;;;;;5034193;28;19928;-76
2021/11/22 00:43:04;;;;;;;;;;;7.80;94.00;;;;;;5029257;28;19927;-79
2021/11/22 00:45:31;;;;;;;;;;;7.80;94.00;;;;;;5026784;28;19922;-80
2021/11/22 00:47:59;;;;;;;;;;;7.80;94.20;;;;;;5024923;28;19921;-79
2021/11/22 00:50:26;;;;;;;;;;;7.80;94.30;;;;;;5024411;28;19925;-80
2021/11/22 00:52:53;;;;;;;;;;;7.80;94.30;;;;;;5019384;28;20321;-79
2021/11/22 00:55:20;;;;;;;;;;;7.80;94.20;;;;;;5031263;28;19981;-76
2021/11/22 00:57:47;;;;;;;;;;;7.80;94.10;;;;;;5019460;28;19927;-80
2021/11/22 01:00:15;;;;;;;;;;;7.80;94.00;;;;;;5035109;28;20391;-80
2021/11/22 01:02:42;;;;;;;;;;;7.90;94.00;;;;;;5034101;28;20335;-80
2021/11/22 01:05:10;;;;;;;;;;;7.90;94.00;;;;;;5031839;28;20281;-80
2021/11/22 01:07:37;;;;;;;;;;;7.90;94.00;;;;;;5034326;28;20365;-79
2021/11/22 01:10:05;;;;;;;;;;;7.90;94.00;;;;;;5034801;28;19925;-81
2021/11/22 01:12:31;;;;;;;;;;;7.90;94.00;;;;;;5036866;28;19921;-80
2021/11/22 01:14:59;;;;;;;;;;;7.90;93.90;;;;;;5034480;28;19933;-76
2021/11/22 01:17:26;;;;;;;;;;;7.90;93.90;;;;;;5027607;28;19932;-80
2021/11/22 01:19:53;;;;;;;;;;;7.90;93.90;;;;;;5024365;28;20419;-80
2021/11/22 01:22:21;;;;;;;;;;;7.90;94.00;;;;;;5027584;28;19921;-77
2021/11/22 01:24:48;;;;;;;;;;;7.90;94.00;;;;;;5026881;28;20334;-76
2021/11/22 01:27:35;;;;;;;;;;;7.90;93.90;;;;;;5031617;28;20022;-77
2021/11/22 01:30:08;;;;;;;;;;;7.90;94.00;;;;;;5024369;28;19975;-79
2021/11/22 01:32:35;;;;;;;;;;;7.90;94.00;;;;;;5020368;28;19925;-80
2021/11/22 01:35:02;;;;;;;;;;;7.90;94.00;;;;;;5021268;28;19924;-76
2021/11/22 01:37:29;;;;;;;;;;;7.90;94.00;;;;;;5032867;28;19928;-79
2021/11/22 01:39:56;;;;;;;;;;;7.90;94.00;;;;;;5033442;28;19921;-80
2021/11/22 01:42:22;;;;;;;;;;;7.90;94.00;;;;;;5034326;28;19924;-80
2021/11/22 01:44:49;;;;;;;;;;;7.90;94.10;;;;;;5033667;28;19928;-81
2021/11/22 01:47:16;;;;;;;;;;;7.90;94.10;;;;;;5033794;28;19925;-79
2021/11/22 01:49:43;;;;;;;;;;;7.90;94.10;;;;;;5019377;28;19928;-81
2021/11/22 01:52:10;;;;;;;;;;;7.90;94.10;;;;;;5034040;28;20331;-76
2021/11/22 01:54:37;;;;;;;;;;;7.90;94.10;;;;;;5033745;28;19931;-79
2021/11/22 01:57:05;;;;;;;;;;;7.90;94.10;;;;;;5014001;28;19921;-79
2021/11/22 01:59:32;;;;;;;;;;;7.90;94.10;;;;;;5020917;28;19928;-79
2021/11/22 02:02:02;;;;;;;;;;;7.90;94.10;;;;;;5015720;28;19925;-79
2021/11/22 02:04:29;;;;;;;;;;;7.90;94.20;;;;;;5013576;28;19963;-79
2021/11/22 02:06:56;;;;;;;;;;;7.90;94.20;;;;;;5013790;28;19921;-79
2021/11/22 02:09:23;;;;;;;;;;;7.90;94.20;;;;;;5027231;28;19967;-81
2021/11/22 02:11:50;;;;;;;;;;;7.90;94.30;;;;;;5034737;28;19929;-81
2021/11/22 02:14:17;;;;;;;;;;;7.80;94.30;;;;;;5038266;28;19924;-76
2021/11/22 02:16:43;;;;;;;;;;;7.80;94.00;;;;;;5016337;28;19921;-79
2021/11/22 02:19:10;;;;;;;;;;;7.80;94.00;;;;;;5014215;28;19921;-80
2021/11/22 02:21:37;;;;;;;;;;;7.70;94.10;;;;;;5029269;28;19925;-79
2021/11/22 02:24:05;;;;;;;;;;;7.70;94.00;;;;;;5025223;28;19921;-76
2021/11/22 02:26:32;;;;;;;;;;;7.60;94.00;;;;;;5028720;28;19921;-80
2021/11/22 02:28:59;;;;;;;15.90;8.38;;;7.60;94.10;;;;;;5027581;28;19921;-79
2021/11/22 02:31:26;;;;;;;12.60;7.75;;;7.60;94.20;;;;;;5031086;28;20460;-78
2021/11/22 02:33:54;;;;;;;15.57;10.20;;;7.60;94.30;;;;;;5013168;28;20407;-79
2021/11/22 02:36:22;;;;;;;16.58;10.27;;;7.50;94.20;;;;;;5021128;28;20454;-77
2021/11/22 02:38:49;;;;;;;16.63;9.73;;;7.60;94.30;;;;;;5016468;28;20399;-82
2021/11/22 02:41:17;;;;;;;16.30;10.27;;;7.60;94.30;;;;;;5032781;28;20403;-79
2021/11/22 02:43:46;;;;;;;13.85;8.63;;;7.60;94.40;;;;;;5018367;28;20436;-77
2021/11/22 02:46:14;;;;;;;13.48;8.60;;;7.60;94.40;;;;;;5018350;28;20421;-83
2021/11/22 02:48:42;;;;;;;13.18;8.60;;;7.60;94.40;;;;;;5029213;28;20909;-76
2021/11/22 02:51:10;;;;;;;14.93;9.52;;;7.60;94.30;;;;;;5014074;28;20458;-79
2021/11/22 02:53:38;;;;;;;13.52;9.40;;;7.60;94.20;;;;;;5021088;28;20762;-76
2021/11/22 02:56:07;;;;;;;13.38;8.98;;;7.60;94.20;;;;;;5020468;28;20919;-78
2021/11/22 02:58:37;;;;;;;12.40;7.80;;;7.60;94.20;;;;;;5017515;28;20477;-79
2021/11/22 03:01:07;;;;;;;12.40;7.87;;;7.60;94.10;;;;;;5025211;28;20472;-78
2021/11/22 03:03:35;;;;;;;11.40;7.43;;;7.60;94.10;;;;;;5019475;28;20472;-77
2021/11/22 03:06:04;;;;;;;10.33;7.00;;;7.60;94.10;;;;;;5031146;28;20414;-82
2021/11/22 03:08:31;;;;;;;11.55;7.00;;;7.60;94.00;;;;;;5024159;28;20825;-77
2021/11/22 03:10:58;;;;;;;10.23;6.53;;;7.60;94.00;;;;;;5016341;28;20810;-78
2021/11/22 03:13:25;;;;;;;13.20;7.20;;;7.60;94.00;;;;;;5029899;28;20409;-82
2021/11/22 03:15:52;;;;;;;10.18;6.88;;;7.60;94.00;;;;;;5024024;28;20408;-76
2021/11/22 03:18:19;;;;;;;10.50;6.45;;;7.60;94.10;;;;;;5029821;28;20924;-82
2021/11/22 03:20:46;;;;;;;8.85;6.10;;;7.50;94.10;;;;;;5033779;28;20735;-79
2021/11/22 03:23:17;;;;;;;9.77;6.82;;;7.60;94.20;;;;;;5021661;28;20766;-80
2021/11/22 03:25:43;;;;;;;10.05;7.20;;;7.60;94.10;;;;;;5034919;28;20825;-80
2021/11/22 03:28:12;;;;;;;11.15;7.32;;;7.50;94.00;;;;;;5034087;28;20444;-77
2021/11/22 03:30:40;;;;;;;11.80;7.30;;;7.50;94.00;;;;;;5027707;28;20407;-80
2021/11/22 03:33:07;;;;;;;10.85;7.47;;;7.50;94.10;;;;;;5028908;28;20394;-79
2021/11/22 03:35:34;;;;;;;10.50;7.32;;;7.50;94.10;;;;;;5028057;28;20428;-77
2021/11/22 03:38:01;;;;;;;10.65;7.00;;;7.50;94.00;;;;;;5033769;28;20422;-76
2021/11/22 03:40:29;;;;;;;12.15;7.13;;;7.50;94.00;;;;;;5020098;28;20885;-80
2021/11/22 03:43:13;;;;;;;10.23;6.90;;;7.60;94.00;;;;;;5030540;28;20840;-81
2021/11/22 03:45:43;;;;;;;10.50;6.47;;;7.50;94.00;;;;;;5028686;28;20398;-77
2021/11/22 03:48:11;;;;;;;12.10;7.60;;;7.50;94.00;;;;;;5031497;28;20932;-77
2021/11/22 03:50:39;;;;;;;9.07;6.60;;;7.60;94.00;;;;;;5028693;28;20410;-79
2021/11/22 03:53:06;;;;;;;11.70;7.40;;;7.60;94.00;;;;;;5033444;28;20399;-80
2021/11/22 03:55:33;;;;;;;11.18;7.32;;;7.60;93.90;;;;;;5024355;28;20528;-81
2021/11/22 03:58:00;;;;;;;10.55;7.47;;;7.50;93.90;;;;;;5023193;28;20427;-79
2021/11/22 04:00:27;;;;;;;11.32;7.80;;;7.50;93.90;;;;;;5034273;28;20406;-79
2021/11/22 04:02:55;;;;;;;11.18;7.85;;;7.60;94.00;;;;;;5023692;28;20445;-81
2021/11/22 04:05:22;;;;;;;11.53;6.83;;;7.50;94.00;;;;;;5030583;28;20414;-81
2021/11/22 04:07:49;;;;;;;10.52;7.22;;;7.50;94.00;;;;;;5027783;28;20459;-76
2021/11/22 04:10:16;;;;;;;12.77;7.47;;;7.50;94.00;;;;;;5033874;28;20406;-80
2021/11/22 04:12:43;;;;;;;13.40;8.50;;;7.50;93.90;;;;;;5028951;28;20403;-80
2021/11/22 04:15:10;;;;;;;11.93;7.90;;;7.40;94.10;;;;;;5046162;28;20398;-77
2021/11/22 04:17:41;;;;;;;11.90;7.45;;;7.40;94.30;;;;;;5030202;28;20850;-81
2021/11/22 04:20:09;;;;;;;12.57;7.78;;;7.40;94.30;;;;;;5033474;28;20402;-79
2021/11/22 04:22:36;;;;;;;12.15;7.90;;;7.40;94.40;;;;;;5020302;28;20797;-79
2021/11/22 04:25:05;;;;;;;12.85;7.97;;;7.30;94.40;;;;;;5029974;28;20414;-77
2021/11/22 04:27:33;;;;;;;11.27;7.53;;;7.40;94.50;;;;;;5016404;28;20807;-79
2021/11/22 04:30:01;;;;;;;10.63;7.05;;;7.40;94.50;;;;;;5027692;28;20817;-77
2021/11/22 04:32:28;;;;;;;10.47;7.03;;;7.30;94.40;;;;;;5047842;28;20413;-80
2021/11/22 04:34:55;;;;;;;11.70;7.25;;;7.40;94.60;;;;;;5031148;28;20403;-80
2021/11/22 04:37:26;;;;;;;14.50;8.43;;;7.40;94.60;;;;;;5031112;28;20433;-79
2021/11/22 04:39:54;;;;;;;10.80;7.47;;;7.40;94.50;;;;;;5031539;28;20418;-81
2021/11/22 04:42:21;;;;;;;10.10;6.45;;;7.30;94.60;;;;;;5028329;28;20420;-75
2021/11/22 04:44:48;;;;;;;11.52;7.60;;;7.40;94.60;;;;;;5023363;28;20410;-77
2021/11/22 04:47:19;;;;;;;9.63;6.28;;;7.40;94.50;;;;;;5027301;28;20476;-78
2021/11/22 04:49:48;;;;;;;10.25;6.00;;;7.40;95.00;;;;;;5033345;28;20414;-79
2021/11/22 04:52:16;;;;;;;6.72;5.45;;;7.50;94.50;;;;;;5030813;28;20414;-79
2021/11/22 04:54:43;;;;;;;7.70;5.40;;;7.60;94.50;;;;;;5033225;28;20441;-80
2021/11/22 04:57:10;;;;;;;7.57;5.25;;;7.60;94.40;;;;;;5030673;28;20817;-81
2021/11/22 04:59:37;;;;;;;8.82;5.75;;;7.60;94.20;;;;;;5019881;28;20393;-80
2021/11/22 05:02:05;;;;;;;7.85;4.90;;;7.70;94.20;;;;;;5030824;28;20763;-80
2021/11/22 05:04:32;;;;;;;7.28;4.38;;;7.70;94.10;;;;;;5030166;28;20045;-80
2021/11/22 05:06:59;;;;;;;6.65;4.07;;;7.60;94.00;;;;;;5030528;28;20468;-81
2021/11/22 05:09:27;;;;;;;6.60;3.70;;;7.60;93.90;;;;;;5020668;28;20489;-80
2021/11/22 05:11:54;;;;;;;9.05;4.70;;;7.60;93.90;;;;;;5025828;28;20046;-79
2021/11/22 05:14:22;;;;;;;7.00;4.75;;;7.50;93.90;;;;;;5039809;28;20052;-77
2021/11/22 05:16:49;;;;;;;7.82;3.95;;;7.50;93.90;;;;;;5029471;28;20053;-77
2021/11/22 05:19:16;;;;;;;;;;;7.50;93.90;;;;;;5027818;28;20057;-81
2021/11/22 05:21:44;;;;;;;;;;;7.50;93.90;;;;;;5029802;28;19922;-80
2021/11/22 05:24:11;;;;;;;;;;;7.50;94.00;;;;;;5023946;28;19945;-79
2021/11/22 05:26:39;;;;;;;;;;;7.40;93.90;;;;;;5032622;28;19957;-79
2021/11/22 05:29:08;;;;;;;;;;;7.40;94.00;;;;;;5031562;28;19921;-80
2021/11/22 05:31:35;;;;;;;;;;;7.50;94.00;;;;;;5030348;28;19928;-82
2021/11/22 05:34:02;;;;;;;;;;;7.40;94.00;;;;;;5033561;28;20399;-77
2021/11/22 05:36:29;;;;;;;;;;;7.40;94.10;;;;;;5033833;28;19952;-80
2021/11/22 05:38:56;;;;;;;;;;;7.40;94.10;;;;;;5020208;28;19921;-83
2021/11/22 05:41:23;;;;;;;;;;;7.40;94.10;;;;;;5031786;28;19921;-79
2021/11/22 05:43:50;;;;;;;;;;;7.40;94.10;;;;;;5019521;28;19929;-82
2021/11/22 05:46:17;;;;;;;;;;;7.40;94.00;;;;;;5031411;28;19921;-79
2021/11/22 05:48:44;;;;;;;;;;;7.50;94.00;;;;;;5028220;28;19979;-79
2021/11/22 05:51:12;;;;;;;;;;;7.40;94.00;;;;;;5028519;28;20372;-82
2021/11/22 05:53:40;;;;;;;;;;;7.40;93.90;;;;;;5025112;28;19932;-79
2021/11/22 05:56:08;;;;;;;;;;;7.40;94.30;;;;;;5015639;28;19922;-82
2021/11/22 05:58:35;;;;;;;;;;;7.40;93.80;;;;;;5027102;28;19926;-76
2021/11/22 06:01:03;;;;;;;;;;;7.50;94.10;;;;;;5043235;28;20303;-80
2021/11/22 06:03:30;;;;;;;;;;;7.40;94.30;;;;;;5020701;28;19949;-79
2021/11/22 06:05:58;;;;;;;;;;;7.40;94.30;;;;;;5014543;28;19921;-76
2021/11/22 06:08:25;;;;;;;;;;;7.40;94.40;;;;;;5025862;28;19921;-84
2021/11/22 06:10:52;;;;;;;;;;;7.40;94.30;;;;;;5029887;28;19944;-84
2021/11/22 06:13:19;;;;;;;;;;;7.40;94.30;;;;;;5026907;28;19932;-79
2021/11/22 06:15:47;;;;;;;;;;;7.40;94.30;;;;;;5032685;28;19928;-83
2021/11/22 06:18:14;;;;;;;;;;;7.40;94.20;;;;;;5032936;28;19921;-77
2021/11/22 06:20:41;;;;;;;;;;;7.40;94.20;;;;;;5022207;28;19921;-79
2021/11/22 06:23:07;;;;;;;;;;;7.40;94.30;;;;;;5033419;28;19925;-76
2021/11/22 06:25:34;;;;;;;;;;;7.40;94.20;;;;;;5021439;28;19926;-76
2021/11/22 06:28:02;;;;;;;;;;;7.40;94.20;;;;;;5027143;28;19921;-83
2021/11/22 06:30:29;;;;;;;;;;;7.40;94.30;;;;;;5022765;28;19925;-83
2021/11/22 06:32:57;;;;;;;;;;;7.40;94.30;;;;;;5031422;28;20377;-83
2021/11/22 06:35:24;;;;;;;;;;;7.40;94.30;;;;;;5032061;28;19925;-83
2021/11/22 06:37:51;;;;;;;;;;;7.50;94.30;;;;;;5031889;28;20445;-79
2021/11/22 06:40:18;;;;;;;;;;;7.40;94.20;;;;;;5027907;28;19925;-76
2021/11/22 06:42:46;;;;;;;;;;;7.40;94.30;;;;;;5033854;28;19944;-80
2021/11/22 06:45:13;;;;;;;;;;;7.50;94.20;;;;;;5033503;28;19967;-80
2021/11/22 06:47:40;;;;;;;;;;;7.50;94.20;;;;;;5018182;28;19921;-76
2021/11/22 06:50:08;;;;;;;;;;;7.40;94.30;;;;;;5026711;28;20472;-82
2021/11/22 06:52:35;;;;;;;;;;;7.50;94.40;;;;;;5023167;28;19927;-76
2021/11/22 06:55:02;;;;;;;;;;;7.40;94.40;;;;;;5023928;28;20357;-82
2021/11/22 06:57:29;;;;;;;;;;;7.40;94.40;;;;;;5036404;28;19921;-76
2021/11/22 06:59:57;;;;;;;;;;;7.50;94.40;;;;;;5025611;28;20366;-80
2021/11/22 07:02:24;;;;;;;;;;;7.50;94.40;;;;;;5021671;28;19920;-79
2021/11/22 07:04:52;;;;;;;;;;;7.40;94.30;;;;;;5027059;28;19921;-82
2021/11/22 07:07:19;;;;;;;;;;;7.50;94.30;;;;;;5033648;28;20412;-80
2021/11/22 07:09:46;;;;;;;;;;;7.50;94.30;;;;;;5028355;28;19921;-82
2021/11/22 07:12:13;;;;;;;;;;;7.50;94.40;;;;;;5031910;28;20335;-76
2021/11/22 07:14:42;;;;;;;;;;;7.40;94.50;;;;;;5034104;28;20396;-82
2021/11/22 07:17:10;;;;;;;;;;;7.50;94.50;;;;;;5025813;28;20381;-76
2021/11/22 07:19:37;;;;;;;;;;;7.50;94.60;;;;;;5035392;28;20024;-79
2021/11/22 07:22:07;;;;;;;;;;;7.40;94.60;;;;;;5020483;28;19952;-79
2021/11/22 07:24:34;;;;;;;;;;;7.40;94.60;;;;;;5033997;28;19972;-80
2021/11/22 07:27:01;;;;;;;;;;;7.50;94.70;;;;;;5024913;28;20291;-79
2021/11/22 07:29:28;;;;;;;;;;;7.50;94.70;;;;;;5024036;28;19925;-79
2021/11/22 07:31:55;;;;;;;;;;;7.50;94.70;;;;;;5031835;28;20377;-81
2021/11/22 07:34:22;;;;;;;;;;;7.50;94.70;;;;;;5036297;28;19921;-77
2021/11/22 07:36:49;;;;;;;;;;;7.40;94.70;;;;;;5031580;28;19937;-77
2021/11/22 07:39:16;;;;;;;;;;;7.40;94.80;;;;;;5027627;28;20266;-81
2021/11/22 07:41:44;;;;;;;;;;;7.40;94.90;;;;;;5027484;28;19921;-79
2021/11/22 07:44:11;;;;;;;;;;;7.40;94.90;;;;;;5020627;28;19921;-76
2021/11/22 07:46:38;;;;;;;;;;;7.40;95.00;;;;;;5034427;28;19920;-76
2021/11/22 07:49:05;;;;;;;;;;;7.50;95.00;;;;;;5028539;28;19921;-81
2021/11/22 07:51:32;;;;;;;;;;;7.50;95.00;;;;;;5035773;28;20380;-77
2021/11/22 07:53:59;;;;;;;;;;;7.50;94.90;;;;;;5033652;28;19931;-80
2021/11/22 07:56:26;;;;;;;;;;;7.60;95.00;;;;;;5033363;28;19921;-79
2021/11/22 07:58:53;;;;;;;;;;;7.60;94.90;;;;;;5025724;28;19928;-80
2021/11/22 08:01:19;;;;;;;;;;;7.60;94.80;;;;;;5030947;28;20016;-80
2021/11/22 08:03:47;;;;;;;;;;;7.70;94.80;;;;;;5027955;28;19921;-81
2021/11/22 08:06:14;;;;;;;;;;;7.70;94.80;;;;;;5026593;28;19921;-80
2021/11/22 08:08:41;;;;;;;;;;;7.80;94.80;;;;;;5029813;28;19921;-79
2021/11/22 08:13:41;;;;;;;;;;;7.90;94.70;;;;;;5032286;28;19921;-76
2021/11/22 08:16:08;;;;;;;;;;;7.90;94.60;;;;;;5032475;28;19971;-80
2021/11/22 08:18:36;;;;;;;;;;;8.00;94.60;;;;;;5032236;28;19921;-80
2021/11/22 08:21:03;;;;;;;;;;;8.00;94.40;;;;;;5035764;28;19928;-79
2021/11/22 08:23:31;;;;;;;;;;;8.00;94.40;;;;;;5021088;28;19921;-76
2021/11/22 08:25:58;;;;;;;;;;;8.10;94.10;;;;;;5023855;28;20320;-76
2021/11/22 08:28:24;;;;;;;;;;;8.00;94.00;;;;;;5016083;28;20377;-76
2021/11/22 08:30:51;;;;;;;;;;;8.10;94.10;;;;;;5033682;28;20365;-79
2021/11/22 08:33:19;;;;;;;;;;;8.10;94.20;;;;;;5032402;28;20324;-80
2021/11/22 08:35:46;;;;;;;;;;;8.10;94.10;;;;;;5026936;28;19922;-75
2021/11/22 08:38:13;;;;;;;;;;;8.10;94.10;;;;;;5015078;28;19922;-80
2021/11/22 08:40:41;;;;;;;;;;;8.00;94.00;;;;;;5031967;28;19925;-80
2021/11/22 08:43:10;;;;;;;;;;;8.10;94.10;;;;;;5024501;28;19921;-79
2021/11/22 08:45:37;;;;;;;;;;;8.10;94.10;;;;;;5028977;28;19928;-81
2021/11/22 08:48:05;;;;;;;;;;;8.10;94.00;;;;;;5024378;28;20407;-76
2021/11/22 08:50:31;;;;;;;;;;;8.10;94.00;;;;;;5020486;28;19975;-80
2021/11/22 08:52:58;;;;;;;;;;;8.10;93.90;;;;;;5029846;28;19979;-77
2021/11/22 08:55:26;;;;;;;;;;;8.10;93.90;;;;;;5019642;28;19928;-81
2021/11/22 08:57:53;;;;;;;;;;;8.10;93.80;;;;;;5013784;28;20290;-79
2021/11/22 09:00:25;;;;;;;;;;;8.10;93.70;;;;;;5022935;28;19960;-76
2021/11/22 09:02:52;;;;;;;;;;;8.10;93.80;;;;;;5020238;28;20317;-82
2021/11/22 09:05:19;;;;;;;;;;;8.10;93.90;;;;;;5035276;28;20377;-80
2021/11/22 09:07:46;;;;;;;;;;;8.10;93.80;;;;;;5030337;28;19928;-76
2021/11/22 09:10:13;;;;;;;;;;;8.10;94.00;;;;;;5026517;28;19921;-80
2021/11/22 09:12:40;;;;;;;;;;;8.10;94.10;;;;;;5029439;28;20448;-76
2021/11/22 09:15:08;;;;;;;;;;;8.10;94.10;;;;;;5022573;28;20280;-79
2021/11/22 09:17:35;;;;;;;;;;;8.10;94.10;;;;;;5043652;28;19929;-79
2021/11/22 09:20:03;;;;;;;;;;;8.20;94.10;;;;;;5020779;28;19957;-80
2021/11/22 09:22:30;;;;;;;;;;;8.20;94.10;;;;;;5019116;28;19925;-79
2021/11/22 09:24:56;;;;;;;;;;;8.20;94.00;;;;;;5027503;28;19927;-80
2021/11/22 09:27:23;;;;;;;;;;;8.20;93.90;;;;;;5034311;28;20320;-76
2021/11/22 09:29:50;;;;;;;;;;;8.20;93.90;;;;;;5023513;28;19928;-82
2021/11/22 09:32:17;;;;;;;;;;;8.20;93.90;;;;;;5015511;28;19967;-76
2021/11/22 09:34:44;;;;;;;;;;;8.30;93.90;;;;;;5032030;28;19921;-80
2021/11/22 09:37:11;;;;;;;;;;;8.30;93.80;;;;;;5024387;28;19953;-79
2021/11/22 09:39:37;;;;;;;;;;;8.40;93.80;;;;;;5033460;28;19928;-81
2021/11/22 09:42:04;;;;;;;;;;;8.40;93.70;;;;;;5033925;28;20246;-79
2021/11/22 09:44:31;;;;;;;;;;;8.50;93.60;;;;;;5024037;28;19928;-76
2021/11/22 09:46:58;;;;;;;;;;;8.60;93.50;;;;;;5021140;28;19921;-80
2021/11/22 09:49:25;;;;;;;9.77;6.72;;;8.60;93.40;;;;;;5022087;28;19921;-81
2021/11/22 09:51:52;;;;;;;12.75;7.82;;;8.70;93.50;;;;;;5023900;28;20067;-80
2021/11/22 09:54:20;;;;;;;12.93;8.65;;;8.70;93.20;;;;;;5017333;28;20489;-76
2021/11/22 09:56:49;;;;;;;11.35;8.13;;;8.80;93.00;;;;;;5026220;28;20096;-81
2021/11/22 09:59:17;;;;;;;12.00;7.32;;;8.80;92.60;;;;;;5025469;28;20041;-81
2021/11/22 10:01:47;;;;;;;9.80;6.78;;;8.80;92.50;;;;;;5023182;28;20490;-81
2021/11/22 10:04:17;;;;;;;9.82;6.20;;;8.90;92.60;;;;;;5013703;28;20053;-76
2021/11/22 10:06:57;;;;;;;9.25;6.70;;;8.90;92.40;;;;;;5032282;28;20137;-76
2021/11/22 10:09:46;;;;;;;10.65;7.78;;;9.00;92.50;;;;;;5012836;28;20872;-76
2021/11/22 10:12:20;;;;;;;11.07;8.07;;;9.00;92.50;;;;;;5025372;28;20929;-81
2021/11/22 10:14:53;;;;;;;10.65;7.70;;;8.90;92.90;;;;;;5029551;28;20405;-81
2021/11/22 10:17:33;;;;;;;11.17;7.87;;;8.90;92.30;;;;;;5028931;28;20414;-80
2021/11/22 10:20:09;;;;;;;10.15;7.38;;;8.90;92.30;;;;;;5029047;28;20884;-81
2021/11/22 10:22:48;;;;;;;9.23;6.90;;;8.90;92.50;;;;;;5024063;28;20412;-81
2021/11/22 10:25:16;;;;;;;9.27;6.88;;;9.10;92.40;;;;;;5021824;28;20404;-80
2021/11/22 10:27:43;;;;;;;10.00;7.20;;;9.20;92.30;;;;;;5024910;28;20400;-80
2021/11/22 10:30:21;;;;;;;9.52;7.18;;;9.40;92.20;;;;;;5020395;28;20495;-81
2021/11/22 10:32:51;;;;;;;9.80;7.35;;;9.50;92.00;;;;;;5028154;28;20398;-80
2021/11/22 10:35:19;;;;;;;;;;;9.60;91.50;;;;;;5037611;28;20042;-76
2021/11/22 10:37:55;;;;;;;;;;;9.50;90.90;;;;;;5032219;28;19921;-81
2021/11/22 10:40:21;;;;;;;;;;;9.50;91.20;;;;;;5028709;28;19948;-76
2021/11/22 10:42:49;;;;;;;;;;;9.50;90.70;;;;;;5022317;28;19944;-80
2021/11/22 10:45:23;;;;;;;;;;;9.50;91.40;;;;;;5021031;28;19921;-80
2021/11/22 10:48:07;;;;;;;;;;;9.60;90.90;;;;;;5035819;28;20431;-76
2021/11/22 10:50:36;;;;;;;;;;;9.60;90.90;;;;;;5028788;28;19968;-81
2021/11/22 10:53:04;;;;;;;;;;;9.70;90.80;;;;;;5037507;28;19921;-81
2021/11/22 10:55:45;;;;;;;;;;;9.70;90.90;;;;;;5037100;28;20789;-81
2021/11/22 10:58:33;;;;;;;;;;;9.80;90.90;;;;;;5024734;28;20266;-80
2021/11/22 11:01:20;;;;;;;;;;;9.90;90.90;;;;;;5022818;28;19971;-80
2021/11/22 11:03:49;;;;;;;;;;;9.90;91.20;;;;;;5017856;28;20376;-81
2021/11/22 11:06:16;;;;;;;;;;;10.00;90.80;;;;;;5024010;28;19922;-79
2021/11/22 11:08:45;;;;;;;;;;;10.10;91.00;;;;;;5018002;28;19975;-81
2021/11/22 11:11:13;;;;;;;;;;;10.10;90.50;;;;;;5016660;28;19972;-80
2021/11/22 11:13:47;;;;;;;;;;;10.10;90.60;;;;;;5033718;28;20289;-80
2021/11/22 11:16:14;;;;;;;;;;;10.10;90.20;;;;;;5028473;28;19921;-80
2021/11/22 11:18:53;;;;;;;;;;;10.10;90.00;;;;;;5028402;28;19929;-80
2021/11/22 11:21:20;;;;;;;;;;;10.10;90.20;;;;;;5019719;28;19957;-81
2021/11/22 11:23:47;;;;;;;;;;;10.10;90.30;;;;;;5020512;28;19921;-80
2021/11/22 11:26:14;;;;;;;;;;;10.10;90.20;;;;;;5031424;28;20328;-80
2021/11/22 11:28:42;;;;;;;;;;;10.10;89.90;;;;;;5024903;28;19925;-77
2021/11/22 11:31:09;;;;;;;;;;;10.10;89.60;;;;;;5030903;28;19925;-77
2021/11/22 11:33:36;;;;;;;;;;;10.10;89.90;;;;;;5026786;28;19921;-81
2021/11/22 11:36:11;;;;;;;;;;;10.10;89.90;;;;;;5030570;28;19928;-80
2021/11/22 11:38:58;;;;;;;;;;;10.10;90.20;;;;;;5036356;28;20259;-80
2021/11/22 11:41:39;;;;;;;;;;;10.20;90.10;;;;;;5013945;28;19921;-81
2021/11/22 11:44:30;;;;;;;;;;;10.30;90.40;;;;;;5029353;28;20396;-80
2021/11/22 11:47:15;;;;;;;;;;;10.40;90.20;;;;;;5025643;28;19936;-81
2021/11/22 11:49:42;;;;;;;;;;;10.40;89.60;;;;;;5035502;28;19921;-80
2021/11/22 11:52:23;;;;;;;;;;;10.50;89.40;;;;;;5028158;28;19925;-80
2021/11/22 11:54:49;;;;;;;;;;;10.50;89.00;;;;;;5026230;28;19921;-80
2021/11/22 11:57:17;;;;;;;;;;;10.50;88.60;;;;;;5021095;28;19921;-81
2021/11/22 11:59:47;;;;;;;;;;;10.50;88.70;;;;;;5035077;28;20384;-80
2021/11/22 12:02:19;;;;;;;;;;;10.60;89.00;;;;;;5031137;28;19943;-81
2021/11/22 12:04:47;;;;;;;;;;;10.70;88.70;;;;;;5034700;28;20415;-80
2021/11/22 12:07:34;;;;;;;;;;;10.70;88.00;;;;;;5032543;28;19964;-81
2021/11/22 12:10:06;;;;;;;;;;;10.80;87.50;;;;;;5028990;28;19921;-80
2021/11/22 12:12:53;;;;;;;;;;;10.90;87.40;;;;;;5031034;28;19943;-80
2021/11/22 12:15:20;;;;;;;;;;;11.00;87.30;;;;;;5020985;28;20278;-80
2021/11/22 12:18:07;;;;;;;;;;;11.00;86.20;;;;;;5034583;28;20020;-80
2021/11/22 12:20:34;;;;;;;;;;;11.10;86.80;;;;;;5034763;28;20031;-81
2021/11/22 12:23:19;;;;;;;;;;;11.10;86.00;;;;;;5033063;28;19921;-80
2021/11/22 12:25:47;;;;;;;;;;;11.20;86.00;;;;;;5028304;28;19921;-81
2021/11/22 12:28:17;;;;;;;;;;;11.30;86.50;;;;;;5031009;28;19971;-81
2021/11/22 12:30:49;;;;;;;;;;;11.30;86.30;;;;;;5030260;28;19928;-76
2021/11/22 12:33:26;;;;;;;;;;;11.40;85.10;;;;;;5027693;28;19928;-80
2021/11/22 12:36:11;;;;;;;;;;;11.50;84.80;;;;;;5028604;28;19944;-81
2021/11/22 12:38:41;;;;;;;;;;;11.40;85.80;;;;;;5027888;28;19976;-80
2021/11/22 12:41:22;;;;;;;;;;;11.40;85.40;;;;;;5025826;28;19928;-76
2021/11/22 12:43:51;;;;;;;;;;;11.40;85.90;;;;;;5024190;28;19929;-80
2021/11/22 12:46:23;;;;;;;;;;;11.50;84.40;;;;;;5023973;28;19927;-76
2021/11/22 12:48:53;;;;;;;;;;;11.40;85.70;;;;;;5021058;28;19922;-76
2021/11/22 12:51:21;;;;;;;;;;;11.50;83.90;;;;;;5028047;28;19921;-81
2021/11/22 12:54:04;;;;;;;;;;;11.50;84.40;;;;;;5034124;28;19921;-76
2021/11/22 12:56:32;;;;;;;;;;;11.50;84.70;;;;;;5027668;28;19921;-81
2021/11/22 12:59:19;;;;;;;;;;;11.50;84.30;;;;;;5033526;28;19921;-75
2021/11/22 13:01:47;;;;;;;;;;;11.50;84.60;;;;;;5020830;28;20027;-81
2021/11/22 13:04:33;;;;;;;;;;;11.60;84.60;;;;;;5019355;28;20331;-81
2021/11/22 13:07:00;;;;;;;;;;;11.60;84.50;;;;;;5025110;28;19971;-80
2021/11/22 13:09:55;;;;;;;;;;;11.70;84.50;;;;;;5018593;28;20011;-81
2021/11/22 13:12:32;;;;;;;;;;;11.60;83.30;;;;;;5021932;28;20337;-76
2021/11/22 13:15:12;;;;;;;;;;;11.70;84.10;;;;;;5049090;28;19928;-76
2021/11/22 13:17:39;;;;;;;;;;;11.70;84.00;;;;;;5028523;28;19921;-81
2021/11/22 13:20:06;;;;;;;;;;;11.70;84.70;;;;;;5026758;28;20369;-76
2021/11/22 13:22:33;;;;;;;;;;;11.70;83.80;;;;;;5025636;28;20426;-80
2021/11/22 13:25:16;;;;;;;;;;;11.60;84.10;;;;;;5029125;28;20285;-76
2021/11/22 13:28:03;;;;;;;;;;;11.60;84.30;;;;;;5024311;28;20381;-76
2021/11/22 13:30:31;;;;;;;;;;;11.50;84.20;;;;;;5030899;28;19921;-80
2021/11/22 13:32:58;;;;;;;;;;;11.50;84.70;;;;;;5031377;28;20284;-82
2021/11/22 13:35:25;;;;;;;;;;;11.40;84.80;;;;;;5025662;28;20409;-81
2021/11/22 13:38:24;;;;;;;;;;;11.30;85.30;;;;;;5016581;28;19926;-76
2021/11/22 13:40:56;;;;;;;;;;;11.30;85.50;;;;;;4999324;28;19991;-77
2021/11/22 13:43:27;;;;;;;;;;;11.30;85.20;;;;;;5032859;28;20381;-81
2021/11/22 13:45:56;;;;;;;;;;;11.20;85.80;;;;;;5016907;28;19984;-77
2021/11/22 13:48:42;;;;;;;;;;;11.20;86.10;;;;;;5019242;28;19925;-80
2021/11/22 13:51:12;;;;;;;;;;;11.30;86.30;;;;;;5026067;28;19921;-79
2021/11/22 13:53:38;;;;;;;;;;;11.30;86.50;;;;;;5027139;28;20420;-80
2021/11/22 13:56:05;;;;;;;;;;;11.20;85.90;;;;;;5026722;28;19922;-81
2021/11/22 13:58:32;;;;;;;;;;;11.20;85.50;;;;;;5030559;28;19922;-76
2021/11/22 14:00:59;;;;;;;;;;;11.20;86.00;;;;;;5026201;28;20386;-76
2021/11/22 14:03:27;;;;;;;;;;;11.20;85.40;;;;;;5025885;28;19927;-81
2021/11/22 14:05:55;;;;;;;;;;;11.20;85.60;;;;;;5015387;28;20008;-81
2021/11/22 14:08:22;;;;;;;;;;;11.10;85.90;;;;;;5021074;28;19926;-80
2021/11/22 14:10:50;;;;;;;;;;;11.10;86.00;;;;;;5019873;28;19927;-76
2021/11/22 14:13:19;;;;;;;;;;;11.10;86.40;;;;;;5031676;28;19921;-80